Weather at Boca Raton Airport

Public forecast

Using degrees Fahrenheit for public forecast. Weather courtesy of forecast.io.

Current aviation weather report (METAR) for Boca Raton Airport

Report is more than 6 hours old.

Retrieved 2022/01/17 03:53 UTC (7 hours ago):

KBCT 170353Z 23010KT 10SM BKN045 18/14 A2991

Aviation forecast (TAF) for Boca Raton Airport

Forecast is more than 12 hours old.

Retrieved 2020/02/03 18:20 UTC (2 years ago):

TAF KBCT 031720Z 0318/0418 12005KT P6SM SKC FM040000 VRB03KT P6SM SKC FM041400 16011KT P6SM FEW030